sensor_id;sensor_type;location;lat;lon;timestamp;pressure;altitude;pressure_sealevel;temperature;humidity
61136;BME280;47021;51.340;12.432;2022-12-10T00:01:30;99277.78;;;4.27;70.92
61136;BME280;47021;51.340;12.432;2022-12-10T00:03:58;99289.94;;;4.38;70.46
61136;BME280;47021;51.340;12.432;2022-12-10T00:06:26;99285.91;;;4.47;70.46
61136;BME280;47021;51.340;12.432;2022-12-10T00:09:01;99280.31;;;4.64;70.36
61136;BME280;47021;51.340;12.432;2022-12-10T00:11:29;99276.69;;;4.43;69.85
61136;BME280;47021;51.340;12.432;2022-12-10T00:13:56;99286.75;;;4.35;70.53
61136;BME280;47021;51.340;12.432;2022-12-10T00:16:25;99279.16;;;4.68;69.91
61136;BME280;47021;51.340;12.432;2022-12-10T00:18:53;99283.66;;;3.93;71.56
61136;BME280;47021;51.340;12.432;2022-12-10T00:21:25;99283.69;;;3.81;71.99
61136;BME280;47021;51.340;12.432;2022-12-10T00:23:57;99279.25;;;3.83;72.67
61136;BME280;47021;51.340;12.432;2022-12-10T00:26:24;99278.19;;;4.34;71.21
61136;BME280;47021;51.340;12.432;2022-12-10T00:28:49;99273.97;;;4.33;71.24
61136;BME280;47021;51.340;12.432;2022-12-10T00:31:17;99282.41;;;3.99;71.67
61136;BME280;47021;51.340;12.432;2022-12-10T00:33:43;99284.72;;;3.91;72.52
61136;BME280;47021;51.340;12.432;2022-12-10T00:36:09;99284.44;;;3.83;72.88
61136;BME280;47021;51.340;12.432;2022-12-10T00:38:35;99289.06;;;3.40;73.69
61136;BME280;47021;51.340;12.432;2022-12-10T00:41:04;99282.81;;;4.05;72.57
61136;BME280;47021;51.340;12.432;2022-12-10T00:43:31;99290.25;;;4.10;71.68
61136;BME280;47021;51.340;12.432;2022-12-10T00:45:56;99285.34;;;4.31;71.10
61136;BME280;47021;51.340;12.432;2022-12-10T00:48:23;99287.75;;;4.08;71.58
61136;BME280;47021;51.340;12.432;2022-12-10T00:50:55;99284.38;;;4.08;71.36
61136;BME280;47021;51.340;12.432;2022-12-10T00:53:21;99289.69;;;4.17;71.93
61136;BME280;47021;51.340;12.432;2022-12-10T00:55:46;99288.72;;;4.31;71.01
61136;BME280;47021;51.340;12.432;2022-12-10T00:58:11;99290.13;;;4.11;70.85
61136;BME280;47021;51.340;12.432;2022-12-10T01:03:35;99301.44;;;3.60;73.49
61136;BME280;47021;51.340;12.432;2022-12-10T01:06:08;99305.78;;;3.85;73.14
61136;BME280;47021;51.340;12.432;2022-12-10T01:08:34;99307.19;;;4.14;71.97
61136;BME280;47021;51.340;12.432;2022-12-10T01:11:01;99305.91;;;3.58;73.10
61136;BME280;47021;51.340;12.432;2022-12-10T01:13:26;99304.34;;;3.43;73.21
61136;BME280;47021;51.340;12.432;2022-12-10T01:15:51;99309.50;;;3.93;73.19
61136;BME280;47021;51.340;12.432;2022-12-10T01:18:18;99305.53;;;4.49;70.91
61136;BME280;47021;51.340;12.432;2022-12-10T01:20:52;99305.94;;;4.07;71.67
61136;BME280;47021;51.340;12.432;2022-12-10T01:23:18;99299.22;;;4.41;70.94
61136;BME280;47021;51.340;12.432;2022-12-10T01:25:50;99305.13;;;4.66;69.95
61136;BME280;47021;51.340;12.432;2022-12-10T01:28:18;99315.66;;;4.03;72.10
61136;BME280;47021;51.340;12.432;2022-12-10T01:30:44;99314.22;;;3.99;72.30
61136;BME280;47021;51.340;12.432;2022-12-10T01:33:15;99304.94;;;3.97;72.64
61136;BME280;47021;51.340;12.432;2022-12-10T01:35:51;99305.75;;;4.10;71.63
61136;BME280;47021;51.340;12.432;2022-12-10T01:38:18;99310.59;;;4.14;71.22
61136;BME280;47021;51.340;12.432;2022-12-10T01:40:43;99313.06;;;4.03;72.26
61136;BME280;47021;51.340;12.432;2022-12-10T01:43:11;99313.06;;;4.03;71.60
61136;BME280;47021;51.340;12.432;2022-12-10T01:45:44;99303.75;;;4.13;71.79
61136;BME280;47021;51.340;12.432;2022-12-10T01:48:18;99302.53;;;4.06;71.99
61136;BME280;47021;51.340;12.432;2022-12-10T01:50:50;99312.94;;;3.69;72.72
61136;BME280;47021;51.340;12.432;2022-12-10T01:53:17;99308.16;;;4.24;71.31
61136;BME280;47021;51.340;12.432;2022-12-10T01:58:10;99305.25;;;4.05;71.57
61136;BME280;47021;51.340;12.432;2022-12-10T02:00:36;99305.69;;;3.61;72.80
61136;BME280;47021;51.340;12.432;2022-12-10T02:03:08;99310.75;;;3.75;72.69
61136;BME280;47021;51.340;12.432;2022-12-10T02:05:44;99310.47;;;4.16;71.49
61136;BME280;47021;51.340;12.432;2022-12-10T02:14:13;99314.63;;;4.06;70.51
61136;BME280;47021;51.340;12.432;2022-12-10T02:16:47;99315.25;;;4.46;70.22
61136;BME280;47021;51.340;12.432;2022-12-10T02:19:19;99312.94;;;4.17;71.43
61136;BME280;47021;51.340;12.432;2022-12-10T02:21:48;99299.94;;;4.06;71.21
61136;BME280;47021;51.340;12.432;2022-12-10T02:24:15;99310.94;;;4.34;70.87
61136;BME280;47021;51.340;12.432;2022-12-10T02:26:47;99307.03;;;3.79;71.95
61136;BME280;47021;51.340;12.432;2022-12-10T02:31:46;99308.06;;;3.89;71.29
61136;BME280;47021;51.340;12.432;2022-12-10T02:34:12;99305.06;;;3.70;72.06
61136;BME280;47021;51.340;12.432;2022-12-10T02:36:41;99301.22;;;3.88;71.97
61136;BME280;47021;51.340;12.432;2022-12-10T02:39:10;99306.72;;;3.96;71.55
61136;BME280;47021;51.340;12.432;2022-12-10T02:41:38;99308.56;;;3.69;72.16
61136;BME280;47021;51.340;12.432;2022-12-10T02:46:56;99306.94;;;4.29;70.52
61136;BME280;47021;51.340;12.432;2022-12-10T02:49:27;99302.22;;;4.11;70.46
61136;BME280;47021;51.340;12.432;2022-12-10T02:51:55;99310.34;;;3.69;72.01
61136;BME280;47021;51.340;12.432;2022-12-10T02:54:42;99314.34;;;3.98;71.42
61136;BME280;47021;51.340;12.432;2022-12-10T02:59:56;99311.97;;;4.31;70.14
61136;BME280;47021;51.340;12.432;2022-12-10T03:02:29;99308.16;;;4.24;70.95
61136;BME280;47021;51.340;12.432;2022-12-10T03:05:02;99309.41;;;3.82;71.55
61136;BME280;47021;51.340;12.432;2022-12-10T03:07:34;99312.59;;;3.98;71.14
61136;BME280;47021;51.340;12.432;2022-12-10T03:10:43;99322.88;;;4.11;71.07
61136;BME280;47021;51.340;12.432;2022-12-10T03:12:50;99317.59;;;4.25;70.08
61136;BME280;47021;51.340;12.432;2022-12-10T03:15:23;99321.56;;;4.05;70.97
61136;BME280;47021;51.340;12.432;2022-12-10T03:17:56;99330.44;;;4.01;70.72
61136;BME280;47021;51.340;12.432;2022-12-10T03:20:24;99326.00;;;4.03;71.07
61136;BME280;47021;51.340;12.432;2022-12-10T03:22:51;99322.13;;;3.73;70.86
61136;BME280;47021;51.340;12.432;2022-12-10T03:25:23;99318.88;;;3.94;71.12
61136;BME280;47021;51.340;12.432;2022-12-10T03:27:51;99328.91;;;3.86;71.44
61136;BME280;47021;51.340;12.432;2022-12-10T03:30:18;99324.81;;;4.33;70.16
61136;BME280;47021;51.340;12.432;2022-12-10T03:32:45;99321.25;;;4.10;70.08
61136;BME280;47021;51.340;12.432;2022-12-10T03:35:11;99322.53;;;3.79;71.72
61136;BME280;47021;51.340;12.432;2022-12-10T03:37:39;99318.19;;;3.67;71.37
61136;BME280;47021;51.340;12.432;2022-12-10T03:40:06;99315.63;;;3.54;71.47
61136;BME280;47021;51.340;12.432;2022-12-10T03:42:31;99315.00;;;3.38;72.12
61136;BME280;47021;51.340;12.432;2022-12-10T03:44:57;99316.94;;;3.60;72.04
61136;BME280;47021;51.340;12.432;2022-12-10T03:47:24;99314.91;;;3.52;72.69
61136;BME280;47021;51.340;12.432;2022-12-10T03:49:55;99321.09;;;3.75;72.11
61136;BME280;47021;51.340;12.432;2022-12-10T03:52:21;99320.47;;;3.59;72.16
61136;BME280;47021;51.340;12.432;2022-12-10T03:54:47;99319.03;;;3.55;72.74
61136;BME280;47021;51.340;12.432;2022-12-10T03:57:18;99318.59;;;3.48;72.96
61136;BME280;47021;51.340;12.432;2022-12-10T03:59:44;99314.28;;;3.36;72.97
61136;BME280;47021;51.340;12.432;2022-12-10T04:02:09;99328.00;;;3.37;73.49
61136;BME280;47021;51.340;12.432;2022-12-10T04:04:36;99317.16;;;3.44;72.98
61136;BME280;47021;51.340;12.432;2022-12-10T04:07:02;99315.50;;;3.56;72.21
61136;BME280;47021;51.340;12.432;2022-12-10T04:09:29;99317.91;;;3.07;73.92
61136;BME280;47021;51.340;12.432;2022-12-10T04:11:56;99323.00;;;3.21;73.14
61136;BME280;47021;51.340;12.432;2022-12-10T04:14:21;99325.00;;;3.43;73.39
61136;BME280;47021;51.340;12.432;2022-12-10T04:16:47;99320.47;;;3.59;72.64
61136;BME280;47021;51.340;12.432;2022-12-10T04:19:13;99323.94;;;3.33;73.22
61136;BME280;47021;51.340;12.432;2022-12-10T04:21:41;99323.34;;;3.42;73.17
61136;BME280;47021;51.340;12.432;2022-12-10T04:24:13;99326.53;;;3.58;72.41
61136;BME280;47021;51.340;12.432;2022-12-10T04:26:39;99324.69;;;3.60;72.04
61136;BME280;47021;51.340;12.432;2022-12-10T04:29:05;99321.16;;;3.74;71.86
61136;BME280;47021;51.340;12.432;2022-12-10T04:31:31;99321.28;;;3.47;73.15
61136;BME280;47021;51.340;12.432;2022-12-10T04:34:02;99318.06;;;3.81;71.85
61136;BME280;47021;51.340;12.432;2022-12-10T04:36:30;99314.66;;;3.55;72.39
61136;BME280;47021;51.340;12.432;2022-12-10T04:38:55;99302.19;;;3.37;73.14
61136;BME280;47021;51.340;12.432;2022-12-10T04:41:22;99306.53;;;3.36;73.54
61136;BME280;47021;51.340;12.432;2022-12-10T04:43:47;99304.97;;;3.59;72.66
61136;BME280;47021;51.340;12.432;2022-12-10T04:46:13;99310.34;;;3.69;72.59
61136;BME280;47021;51.340;12.432;2022-12-10T04:48:39;99304.22;;;3.95;72.14
61136;BME280;47021;51.340;12.432;2022-12-10T04:51:04;99301.38;;;3.62;72.37
61136;BME280;47021;51.340;12.432;2022-12-10T04:53:31;99305.78;;;3.72;72.60
61136;BME280;47021;51.340;12.432;2022-12-10T04:55:57;99302.91;;;3.51;72.74
61136;BME280;47021;51.340;12.432;2022-12-10T04:58:28;99310.13;;;3.84;71.88
61136;BME280;47021;51.340;12.432;2022-12-10T05:00:54;99311.38;;;3.53;72.68
61136;BME280;47021;51.340;12.432;2022-12-10T05:03:26;99313.13;;;3.66;72.41
61136;BME280;47021;51.340;12.432;2022-12-10T05:05:53;99303.94;;;3.74;72.64
61136;BME280;47021;51.340;12.432;2022-12-10T05:08:18;99302.91;;;3.51;72.96
61136;BME280;47021;51.340;12.432;2022-12-10T05:10:43;99309.84;;;3.38;73.08
61136;BME280;47021;51.340;12.432;2022-12-10T05:13:10;99313.00;;;3.67;72.94
61136;BME280;47021;51.340;12.432;2022-12-10T05:15:39;99310.97;;;3.60;72.55
61136;BME280;47021;51.340;12.432;2022-12-10T05:18:04;99307.84;;;3.67;72.66
61136;BME280;47021;51.340;12.432;2022-12-10T05:20:30;99316.84;;;3.62;72.45
61136;BME280;47021;51.340;12.432;2022-12-10T05:22:55;99311.16;;;3.82;72.04
61136;BME280;47021;51.340;12.432;2022-12-10T05:25:20;99314.47;;;3.71;72.10
61136;BME280;47021;51.340;12.432;2022-12-10T05:27:47;99320.47;;;3.59;73.14
61136;BME280;47021;51.340;12.432;2022-12-10T05:30:13;99321.19;;;3.36;73.23
61136;BME280;47021;51.340;12.432;2022-12-10T05:32:39;99311.78;;;3.60;73.19
61136;BME280;47021;51.340;12.432;2022-12-10T05:35:04;99319.00;;;3.30;73.77
61136;BME280;47021;51.340;12.432;2022-12-10T05:37:29;99325.44;;;3.62;72.84
61136;BME280;47021;51.340;12.432;2022-12-10T05:39:55;99328.00;;;3.37;72.83
61136;BME280;47021;51.340;12.432;2022-12-10T05:44:53;99332.63;;;3.44;73.15
61136;BME280;47021;51.340;12.432;2022-12-10T05:47:18;99332.41;;;2.83;74.96
61136;BME280;47021;51.340;12.432;2022-12-10T05:49:45;99335.47;;;3.02;74.55
61136;BME280;47021;51.340;12.432;2022-12-10T05:52:27;99343.84;;;3.18;74.33
61136;BME280;47021;51.340;12.432;2022-12-10T05:54:53;99333.31;;;3.09;74.92
61136;BME280;47021;51.340;12.432;2022-12-10T05:57:19;99337.47;;;3.24;73.91
61136;BME280;47021;51.340;12.432;2022-12-10T05:59:45;99335.75;;;3.37;73.41
61136;BME280;47021;51.340;12.432;2022-12-10T06:02:10;99338.81;;;3.42;73.70
61136;BME280;47021;51.340;12.432;2022-12-10T06:04:36;99342.66;;;2.97;75.25
61136;BME280;47021;51.340;12.432;2022-12-10T06:07:02;99345.00;;;3.39;73.83
61136;BME280;47021;51.340;12.432;2022-12-10T06:09:27;99338.81;;;3.67;72.65
61136;BME280;47021;51.340;12.432;2022-12-10T06:11:53;99341.94;;;3.60;72.58
61136;BME280;47021;51.340;12.432;2022-12-10T06:14:18;99338.50;;;3.34;73.35
61136;BME280;47021;51.340;12.432;2022-12-10T06:16:44;99341.44;;;3.03;74.62
61136;BME280;47021;51.340;12.432;2022-12-10T06:19:10;99340.09;;;3.10;74.31
61136;BME280;47021;51.340;12.432;2022-12-10T06:21:37;99344.72;;;2.65;75.65
61136;BME280;47021;51.340;12.432;2022-12-10T06:24:03;99343.94;;;3.17;74.71
61136;BME280;47021;51.340;12.432;2022-12-10T06:26:28;99347.75;;;3.11;74.39
61136;BME280;47021;51.340;12.432;2022-12-10T06:28:54;99347.00;;;2.97;74.55
61136;BME280;47021;51.340;12.432;2022-12-10T06:31:19;99352.34;;;2.94;75.14
61136;BME280;47021;51.340;12.432;2022-12-10T06:33:46;99358.66;;;3.54;72.75
61136;BME280;47021;51.340;12.432;2022-12-10T06:36:13;99362.53;;;3.22;73.82
61136;BME280;47021;51.340;12.432;2022-12-10T06:38:39;99349.03;;;3.18;73.58
61136;BME280;47021;51.340;12.432;2022-12-10T06:41:08;99356.72;;;3.06;74.36
61136;BME280;47021;51.340;12.432;2022-12-10T06:43:34;99370.75;;;3.14;74.03
61136;BME280;47021;51.340;12.432;2022-12-10T06:46:11;99362.94;;;3.28;73.19
61136;BME280;47021;51.340;12.432;2022-12-10T06:48:37;99366.59;;;2.99;74.23
61136;BME280;47021;51.340;12.432;2022-12-10T06:51:04;99371.22;;;3.21;73.99
61136;BME280;47021;51.340;12.432;2022-12-10T06:53:32;99371.94;;;2.96;74.42
61136;BME280;47021;51.340;12.432;2022-12-10T06:55:58;99377.06;;;2.83;74.53
61136;BME280;47021;51.340;12.432;2022-12-10T06:58:24;99376.75;;;3.15;74.04
61136;BME280;47021;51.340;12.432;2022-12-10T07:00:49;99376.75;;;3.15;73.60
61136;BME280;47021;51.340;12.432;2022-12-10T07:03:14;99385.00;;;3.20;73.51
61136;BME280;47021;51.340;12.432;2022-12-10T07:05:41;99385.56;;;2.98;73.64
61136;BME280;47021;51.340;12.432;2022-12-10T07:10:58;99383.66;;;2.88;74.18
61136;BME280;47021;51.340;12.432;2022-12-10T07:13:29;99390.59;;;3.26;73.22
61136;BME280;47021;51.340;12.432;2022-12-10T07:15:55;99389.00;;;2.84;74.23
61136;BME280;47021;51.340;12.432;2022-12-10T07:18:23;99388.22;;;2.84;74.36
61136;BME280;47021;51.340;12.432;2022-12-10T07:20:48;99385.13;;;2.92;74.40
61136;BME280;47021;51.340;12.432;2022-12-10T07:23:13;99398.69;;;2.54;74.95
61136;BME280;47021;51.340;12.432;2022-12-10T07:25:46;99401.28;;;2.26;75.27
61136;BME280;47021;51.340;12.432;2022-12-10T07:28:17;99394.44;;;2.80;74.99
61136;BME280;47021;51.340;12.432;2022-12-10T07:30:42;99396.53;;;3.14;73.60
61136;BME280;47021;51.340;12.432;2022-12-10T07:33:08;99403.41;;;2.74;74.05
61136;BME280;47021;51.340;12.432;2022-12-10T07:35:34;99399.53;;;2.81;73.65
61136;BME280;47021;51.340;12.432;2022-12-10T07:37:59;99406.34;;;2.68;73.85
61136;BME280;47021;51.340;12.432;2022-12-10T07:40:25;99400.44;;;2.80;74.44
61136;BME280;47021;51.340;12.432;2022-12-10T07:42:50;99407.47;;;2.64;73.76
61136;BME280;47021;51.340;12.432;2022-12-10T07:45:17;99402.63;;;2.60;74.49
61136;BME280;47021;51.340;12.432;2022-12-10T07:47:42;99406.84;;;2.75;73.91
61136;BME280;47021;51.340;12.432;2022-12-10T07:50:07;99416.59;;;2.70;73.93
61136;BME280;47021;51.340;12.432;2022-12-10T07:55:03;99404.88;;;2.78;73.84
61136;BME280;47021;51.340;12.432;2022-12-10T07:57:29;99413.91;;;2.71;73.04
61136;BME280;47021;51.340;12.432;2022-12-10T08:00:00;99416.16;;;2.90;73.46
61136;BME280;47021;51.340;12.432;2022-12-10T08:02:28;99415.91;;;2.80;72.85
61136;BME280;47021;51.340;12.432;2022-12-10T08:05:01;99410.91;;;2.92;72.92
61136;BME280;47021;51.340;12.432;2022-12-10T08:13:08;99427.19;;;2.92;73.61
61136;BME280;47021;51.340;12.432;2022-12-10T08:18:18;99428.75;;;3.21;72.74
61136;BME280;47021;51.340;12.432;2022-12-10T08:20:44;99424.19;;;3.12;72.90
61136;BME280;47021;51.340;12.432;2022-12-10T08:23:16;99425.69;;;3.29;71.76
61136;BME280;47021;51.340;12.432;2022-12-10T08:25:41;99421.66;;;3.64;71.54
61136;BME280;47021;51.340;12.432;2022-12-10T08:28:13;99430.72;;;3.18;72.15
61136;BME280;47021;51.340;12.432;2022-12-10T08:30:47;99423.72;;;3.32;72.01
61136;BME280;47021;51.340;12.432;2022-12-10T08:33:13;99435.34;;;2.86;72.89
61136;BME280;47021;51.340;12.432;2022-12-10T08:35:38;99437.88;;;3.00;73.58
61136;BME280;47021;51.340;12.432;2022-12-10T08:38:05;99437.69;;;3.42;71.84
61136;BME280;47021;51.340;12.432;2022-12-10T08:40:38;99439.38;;;2.90;72.23
61136;BME280;47021;51.340;12.432;2022-12-10T08:43:04;99432.50;;;3.03;73.30
61136;BME280;47021;51.340;12.432;2022-12-10T08:45:32;99441.94;;;3.17;72.65
61136;BME280;47021;51.340;12.432;2022-12-10T08:47:58;99444.34;;;3.20;72.10
61136;BME280;47021;51.340;12.432;2022-12-10T08:50:23;99442.69;;;2.78;73.02
61136;BME280;47021;51.340;12.432;2022-12-10T08:52:56;99442.59;;;3.20;72.51
61136;BME280;47021;51.340;12.432;2022-12-10T08:55:28;99443.25;;;3.36;72.07
61136;BME280;47021;51.340;12.432;2022-12-10T08:57:56;99446.44;;;3.27;71.56
61136;BME280;47021;51.340;12.432;2022-12-10T09:00:21;99441.56;;;3.23;72.19
61136;BME280;47021;51.340;12.432;2022-12-10T09:02:52;99446.31;;;3.68;70.17
61136;BME280;47021;51.340;12.432;2022-12-10T09:05:17;99449.44;;;3.34;71.10
61136;BME280;47021;51.340;12.432;2022-12-10T09:07:45;99453.38;;;3.13;71.97
61136;BME280;47021;51.340;12.432;2022-12-10T09:10:10;99457.97;;;2.95;73.09
61136;BME280;47021;51.340;12.432;2022-12-10T09:12:38;99454.91;;;3.42;72.18
61136;BME280;47021;51.340;12.432;2022-12-10T09:15:04;99458.69;;;3.50;71.83
61136;BME280;47021;51.340;12.432;2022-12-10T09:17:32;99454.50;;;3.35;72.00
61136;BME280;47021;51.340;12.432;2022-12-10T09:20:05;99457.28;;;3.06;72.16
61136;BME280;47021;51.340;12.432;2022-12-10T09:22:49;99458.78;;;2.96;73.26
61136;BME280;47021;51.340;12.432;2022-12-10T09:25:25;99461.41;;;3.35;72.44
61136;BME280;47021;51.340;12.432;2022-12-10T09:36:23;99453.19;;;3.16;72.24
61136;BME280;47021;51.340;12.432;2022-12-10T09:50:06;99451.94;;;3.09;71.88
61136;BME280;47021;51.340;12.432;2022-12-10T09:55:22;99445.66;;;3.13;72.29
61136;BME280;47021;51.340;12.432;2022-12-10T10:00:41;99448.38;;;3.24;72.13
61136;BME280;47021;51.340;12.432;2022-12-10T10:03:18;99441.47;;;3.76;70.29
61136;BME280;47021;51.340;12.432;2022-12-10T10:05:48;99442.00;;;3.81;69.98
61136;BME280;47021;51.340;12.432;2022-12-10T10:16:36;99438.69;;;3.79;69.89
61136;BME280;47021;51.340;12.432;2022-12-10T10:19:11;99435.97;;;3.55;70.94
61136;BME280;47021;51.340;12.432;2022-12-10T10:21:45;99440.75;;;4.24;69.00
61136;BME280;47021;51.340;12.432;2022-12-10T10:24:22;99448.22;;;3.91;68.73
61136;BME280;47021;51.340;12.432;2022-12-10T10:26:49;99445.59;;;3.27;71.30
61136;BME280;47021;51.340;12.432;2022-12-10T10:29:17;99447.78;;;3.33;71.72
61136;BME280;47021;51.340;12.432;2022-12-10T10:31:43;99444.19;;;3.87;70.02
61136;BME280;47021;51.340;12.432;2022-12-10T10:41:45;99454.47;;;3.62;71.09
61136;BME280;47021;51.340;12.432;2022-12-10T10:44:16;99453.59;;;4.01;69.87
61136;BME280;47021;51.340;12.432;2022-12-10T10:46:49;99452.84;;;3.86;70.11
61136;BME280;47021;51.340;12.432;2022-12-10T10:49:31;99453.59;;;3.36;71.61
61136;BME280;47021;51.340;12.432;2022-12-10T10:52:05;99446.53;;;3.90;69.99
61136;BME280;47021;51.340;12.432;2022-12-10T10:57:24;99447.09;;;4.08;70.11
61136;BME280;47021;51.340;12.432;2022-12-10T10:59:47;99448.13;;;3.41;71.12
61136;BME280;47021;51.340;12.432;2022-12-10T11:02:29;99442.09;;;3.80;69.84
61136;BME280;47021;51.340;12.432;2022-12-10T11:05:08;99440.25;;;4.07;69.27
61136;BME280;47021;51.340;12.432;2022-12-10T11:07:40;99442.41;;;4.13;68.96
61136;BME280;47021;51.340;12.432;2022-12-10T11:10:19;99444.19;;;4.00;68.61
61136;BME280;47021;51.340;12.432;2022-12-10T11:12:55;99439.28;;;4.46;68.04
61136;BME280;47021;51.340;12.432;2022-12-10T11:17:58;99437.66;;;4.19;68.53
61136;BME280;47021;51.340;12.432;2022-12-10T11:20:27;99439.84;;;4.00;68.88
61136;BME280;47021;51.340;12.432;2022-12-10T11:28:10;99437.97;;;3.90;69.63
61136;BME280;47021;51.340;12.432;2022-12-10T11:30:48;99445.31;;;3.96;69.84
61136;BME280;47021;51.340;12.432;2022-12-10T11:50:00;99443.75;;;4.31;68.36
61136;BME280;47021;51.340;12.432;2022-12-10T12:00:44;99453.53;;;3.24;70.97
61136;BME280;47021;51.340;12.432;2022-12-10T12:16:43;99453.94;;;3.57;69.48
61136;BME280;47021;51.340;12.432;2022-12-10T12:24:41;99457.19;;;3.34;69.83
61136;BME280;47021;51.340;12.432;2022-12-10T12:54:45;99464.72;;;4.01;67.71
61136;BME280;47021;51.340;12.432;2022-12-10T13:22:12;99481.50;;;3.69;68.81
61136;BME280;47021;51.340;12.432;2022-12-10T13:36:20;99482.19;;;4.10;67.49
61136;BME280;47021;51.340;12.432;2022-12-10T14:04:07;99504.59;;;3.45;68.93
61136;BME280;47021;51.340;12.432;2022-12-10T14:06:50;99505.53;;;3.30;69.82
61136;BME280;47021;51.340;12.432;2022-12-10T14:09:17;99505.94;;;3.78;68.63
61136;BME280;47021;51.340;12.432;2022-12-10T14:45:28;99516.09;;;4.18;67.91
61136;BME280;47021;51.340;12.432;2022-12-10T14:48:13;99515.75;;;3.46;69.47
61136;BME280;47021;51.340;12.432;2022-12-10T14:53:43;99517.94;;;3.65;69.63
61136;BME280;47021;51.340;12.432;2022-12-10T15:01:42;99529.97;;;3.39;69.78
61136;BME280;47021;51.340;12.432;2022-12-10T15:20:36;99534.59;;;3.20;71.20
61136;BME280;47021;51.340;12.432;2022-12-10T15:23:37;99541.81;;;3.01;71.79
61136;BME280;47021;51.340;12.432;2022-12-10T15:28:23;99538.94;;;3.73;69.61
61136;BME280;47021;51.340;12.432;2022-12-10T15:30:57;99541.19;;;3.65;69.33
61136;BME280;47021;51.340;12.432;2022-12-10T15:33:28;99549.91;;;3.23;70.72
61136;BME280;47021;51.340;12.432;2022-12-10T15:35:56;99553.53;;;3.33;71.05
61136;BME280;47021;51.340;12.432;2022-12-10T15:38:23;99547.66;;;3.31;71.12
61136;BME280;47021;51.340;12.432;2022-12-10T15:40:50;99548.34;;;3.20;71.25
61136;BME280;47021;51.340;12.432;2022-12-10T15:45:48;99556.00;;;3.08;71.17
61136;BME280;47021;51.340;12.432;2022-12-10T15:48:13;99560.72;;;3.28;70.44
61136;BME280;47021;51.340;12.432;2022-12-10T15:50:40;99562.53;;;3.54;70.03
61136;BME280;47021;51.340;12.432;2022-12-10T15:53:07;99565.59;;;3.32;70.05
61136;BME280;47021;51.340;12.432;2022-12-10T15:55:34;99576.97;;;3.30;69.87
61136;BME280;47021;51.340;12.432;2022-12-10T15:57:59;99575.72;;;3.49;69.61
61136;BME280;47021;51.340;12.432;2022-12-10T16:00:26;99577.91;;;3.15;70.57
61136;BME280;47021;51.340;12.432;2022-12-10T16:03:02;99578.44;;;3.20;69.99
61136;BME280;47021;51.340;12.432;2022-12-10T16:05:29;99581.56;;;3.39;69.59
61136;BME280;47021;51.340;12.432;2022-12-10T16:07:56;99578.09;;;3.12;70.30
61136;BME280;47021;51.340;12.432;2022-12-10T16:10:33;99577.53;;;3.21;70.10
61136;BME280;47021;51.340;12.432;2022-12-10T16:13:11;99574.47;;;3.28;69.90
61136;BME280;47021;51.340;12.432;2022-12-10T16:18:22;99583.34;;;3.10;70.31
61136;BME280;47021;51.340;12.432;2022-12-10T16:20:48;99585.81;;;3.26;70.02
61136;BME280;47021;51.340;12.432;2022-12-10T16:23:14;99586.41;;;2.74;71.49
61136;BME280;47021;51.340;12.432;2022-12-10T16:25:45;99583.31;;;3.24;70.44
61136;BME280;47021;51.340;12.432;2022-12-10T16:28:12;99588.19;;;3.43;69.99
61136;BME280;47021;51.340;12.432;2022-12-10T16:30:41;99592.31;;;3.05;70.94
61136;BME280;47021;51.340;12.432;2022-12-10T16:33:07;99589.47;;;3.36;70.84
61136;BME280;47021;51.340;12.432;2022-12-10T16:35:34;99593.06;;;3.33;70.54
61136;BME280;47021;51.340;12.432;2022-12-10T16:37:59;99594.06;;;3.45;70.15
61136;BME280;47021;51.340;12.432;2022-12-10T16:40:26;99593.19;;;3.32;70.23
61136;BME280;47021;51.340;12.432;2022-12-10T16:42:57;99594.22;;;3.56;69.84
61136;BME280;47021;51.340;12.432;2022-12-10T16:45:28;99596.25;;;3.51;69.06
61136;BME280;47021;51.340;12.432;2022-12-10T16:47:54;99598.63;;;3.27;70.19
61136;BME280;47021;51.340;12.432;2022-12-10T16:50:25;99599.44;;;3.28;70.48
61136;BME280;47021;51.340;12.432;2022-12-10T16:52:52;99598.91;;;3.64;69.24
61136;BME280;47021;51.340;12.432;2022-12-10T16:55:25;99599.03;;;3.48;69.45
61136;BME280;47021;51.340;12.432;2022-12-10T16:57:51;99599.44;;;3.95;68.00
61136;BME280;47021;51.340;12.432;2022-12-10T17:00:19;99592.50;;;3.69;68.73
61136;BME280;47021;51.340;12.432;2022-12-10T17:02:45;99593.06;;;3.47;69.57
61136;BME280;47021;51.340;12.432;2022-12-10T17:05:28;99594.22;;;3.15;69.87
61136;BME280;47021;51.340;12.432;2022-12-10T17:07:54;99599.38;;;3.01;70.76
61136;BME280;47021;51.340;12.432;2022-12-10T17:10:20;99595.31;;;3.11;70.33
61136;BME280;47021;51.340;12.432;2022-12-10T17:12:45;99596.91;;;3.00;71.55
61136;BME280;47021;51.340;12.432;2022-12-10T17:15:11;99601.72;;;3.32;70.13
61136;BME280;47021;51.340;12.432;2022-12-10T17:17:40;99596.31;;;3.37;69.73
61136;BME280;47021;51.340;12.432;2022-12-10T17:20:20;99599.19;;;3.59;68.96
61136;BME280;47021;51.340;12.432;2022-12-10T17:22:45;99592.06;;;3.36;69.10
61136;BME280;47021;51.340;12.432;2022-12-10T17:25:12;99605.97;;;3.33;69.67
61136;BME280;47021;51.340;12.432;2022-12-10T17:27:44;99596.34;;;3.23;69.35
61136;BME280;47021;51.340;12.432;2022-12-10T17:30:12;99594.66;;;3.22;69.72
61136;BME280;47021;51.340;12.432;2022-12-10T17:32:37;99599.72;;;3.23;69.66
61136;BME280;47021;51.340;12.432;2022-12-10T17:35:09;99598.91;;;2.95;70.51
61136;BME280;47021;51.340;12.432;2022-12-10T17:37:40;99602.78;;;2.88;70.52
61136;BME280;47021;51.340;12.432;2022-12-10T17:40:15;99598.91;;;2.66;71.46
61136;BME280;47021;51.340;12.432;2022-12-10T17:42:41;99603.41;;;2.91;70.08
61136;BME280;47021;51.340;12.432;2022-12-10T17:45:11;99601.72;;;3.32;69.81
61136;BME280;47021;51.340;12.432;2022-12-10T17:47:38;99603.22;;;2.80;70.23
61136;BME280;47021;51.340;12.432;2022-12-10T17:50:03;99606.66;;;3.09;70.22
61136;BME280;47021;51.340;12.432;2022-12-10T17:52:39;99612.25;;;3.15;69.92
61136;BME280;47021;51.340;12.432;2022-12-10T17:55:06;99619.81;;;2.90;70.54